sensor_id;sensor_type;location;lat;lon;timestamp;pressure;altitude;pressure_sealevel;temperature;humidity
34197;BME280;36594;45.192;5.722;2023-05-12T00:00:46;98810.38;;;25.43;36.91
34197;BME280;36594;45.192;5.722;2023-05-12T00:03:35;98804.33;;;25.41;36.88
34197;BME280;36594;45.192;5.722;2023-05-12T00:06:23;98806.25;;;25.43;36.87
34197;BME280;36594;45.192;5.722;2023-05-12T00:09:12;98803.50;;;25.43;36.84
34197;BME280;36594;45.192;5.722;2023-05-12T00:12:01;98803.20;;;25.42;36.87
34197;BME280;36594;45.192;5.722;2023-05-12T00:14:50;98799.08;;;25.42;36.87
34197;BME280;36594;45.192;5.722;2023-05-12T00:17:38;98792.75;;;25.41;36.88
34197;BME280;36594;45.192;5.722;2023-05-12T00:20:27;98791.95;;;25.41;36.90
34197;BME280;36594;45.192;5.722;2023-05-12T00:23:15;98788.37;;;25.40;36.89
34197;BME280;36594;45.192;5.722;2023-05-12T00:26:04;98793.33;;;25.41;36.88
34197;BME280;36594;45.192;5.722;2023-05-12T00:28:53;98791.67;;;25.43;36.89
34197;BME280;36594;45.192;5.722;2023-05-12T00:31:41;98785.31;;;25.37;36.97
34197;BME280;36594;45.192;5.722;2023-05-12T00:34:30;98787.27;;;25.39;36.97
34197;BME280;36594;45.192;5.722;2023-05-12T00:37:18;98786.71;;;25.42;36.93
34197;BME280;36594;45.192;5.722;2023-05-12T00:40:08;98780.13;;;25.43;36.91
34197;BME280;36594;45.192;5.722;2023-05-12T00:42:57;98780.38;;;25.41;36.92
34197;BME280;36594;45.192;5.722;2023-05-12T00:45:45;98782.59;;;25.42;36.93
34197;BME280;36594;45.192;5.722;2023-05-12T00:48:35;98778.75;;;25.43;36.88
34197;BME280;36594;45.192;5.722;2023-05-12T00:51:25;98778.45;;;25.39;36.94
34197;BME280;36594;45.192;5.722;2023-05-12T00:54:13;98771.05;;;25.43;36.92
34197;BME280;36594;45.192;5.722;2023-05-12T00:57:04;98763.88;;;25.41;36.93
34197;BME280;36594;45.192;5.722;2023-05-12T00:59:53;98761.13;;;25.41;36.91
34197;BME280;36594;45.192;5.722;2023-05-12T01:02:42;98763.34;;;25.42;36.91
34197;BME280;36594;45.192;5.722;2023-05-12T01:05:38;98763.08;;;25.41;36.94
34197;BME280;36594;45.192;5.722;2023-05-12T01:08:24;98762.53;;;25.39;36.92
34197;BME280;36594;45.192;5.722;2023-05-12T01:11:14;98757.03;;;25.39;36.98
34197;BME280;36594;45.192;5.722;2023-05-12T01:14:03;98757.03;;;25.39;37.01
34197;BME280;36594;45.192;5.722;2023-05-12T01:16:54;98758.41;;;25.39;37.00
34197;BME280;36594;45.192;5.722;2023-05-12T01:19:55;98757.83;;;25.39;37.00
34197;BME280;36594;45.192;5.722;2023-05-12T01:22:44;98758.39;;;25.36;37.03
34197;BME280;36594;45.192;5.722;2023-05-12T01:25:33;98760.31;;;25.36;37.03
34197;BME280;36594;45.192;5.722;2023-05-12T01:28:23;98757.81;;;25.34;37.07
34197;BME280;36594;45.192;5.722;2023-05-12T01:31:13;98755.63;;;25.34;37.07
34197;BME280;36594;45.192;5.722;2023-05-12T01:34:02;98754.52;;;25.35;37.08
34197;BME280;36594;45.192;5.722;2023-05-12T01:36:50;98752.89;;;25.36;37.08
34197;BME280;36594;45.192;5.722;2023-05-12T01:39:39;98750.41;;;25.37;37.02
34197;BME280;36594;45.192;5.722;2023-05-12T01:42:29;98749.57;;;25.37;37.03
34197;BME280;36594;45.192;5.722;2023-05-12T01:45:18;98749.85;;;25.35;37.01
34197;BME280;36594;45.192;5.722;2023-05-12T01:48:07;98752.32;;;25.37;37.03
34197;BME280;36594;45.192;5.722;2023-05-12T01:51:00;98753.44;;;25.36;37.08
34197;BME280;36594;45.192;5.722;2023-05-12T01:53:50;98747.39;;;25.36;37.09
34197;BME280;36594;45.192;5.722;2023-05-12T01:56:38;98747.64;;;25.32;37.12
34197;BME280;36594;45.192;5.722;2023-05-12T01:59:27;98744.34;;;25.33;37.13
34197;BME280;36594;45.192;5.722;2023-05-12T02:02:16;98747.92;;;25.33;37.13
34197;BME280;36594;45.192;5.722;2023-05-12T02:05:05;98747.64;;;25.35;37.06
34197;BME280;36594;45.192;5.722;2023-05-12T02:07:54;98747.64;;;25.35;37.09
34197;BME280;36594;45.192;5.722;2023-05-12T02:10:42;98742.98;;;25.35;37.06
34197;BME280;36594;45.192;5.722;2023-05-12T02:13:30;98750.14;;;25.36;36.98
34197;BME280;36594;45.192;5.722;2023-05-12T02:16:20;98746.81;;;25.34;36.89
34197;BME280;36594;45.192;5.722;2023-05-12T02:19:08;98746.02;;;25.34;36.91
34197;BME280;36594;45.192;5.722;2023-05-12T02:21:57;98747.09;;;25.33;36.98
34197;BME280;36594;45.192;5.722;2023-05-12T02:24:45;98750.39;;;25.35;36.98
34197;BME280;36594;45.192;5.722;2023-05-12T02:27:34;98747.39;;;25.34;36.99
34197;BME280;36594;45.192;5.722;2023-05-12T02:30:22;98746.55;;;25.33;37.01
34197;BME280;36594;45.192;5.722;2023-05-12T02:33:11;98743.27;;;25.34;36.99
34197;BME280;36594;45.192;5.722;2023-05-12T02:35:59;98742.97;;;25.33;37.01
34197;BME280;36594;45.192;5.722;2023-05-12T02:38:48;98744.34;;;25.33;37.01
34197;BME280;36594;45.192;5.722;2023-05-12T02:41:37;98746.83;;;25.32;37.02
34197;BME280;36594;45.192;5.722;2023-05-12T02:44:25;98733.09;;;25.32;37.06
34197;BME280;36594;45.192;5.722;2023-05-12T02:47:14;98735.53;;;25.28;37.10
34197;BME280;36594;45.192;5.722;2023-05-12T02:50:02;98736.08;;;25.28;37.11
34197;BME280;36594;45.192;5.722;2023-05-12T02:52:51;98733.33;;;25.28;37.10
34197;BME280;36594;45.192;5.722;2023-05-12T02:55:40;98730.58;;;25.28;37.11
34197;BME280;36594;45.192;5.722;2023-05-12T02:58:28;98732.78;;;25.28;37.11
34197;BME280;36594;45.192;5.722;2023-05-12T03:01:16;98727.57;;;25.27;37.13
34197;BME280;36594;45.192;5.722;2023-05-12T03:04:05;98729.78;;;25.27;37.06
34197;BME280;36594;45.192;5.722;2023-05-12T03:06:53;98733.06;;;25.27;36.97
34197;BME280;36594;45.192;5.722;2023-05-12T03:09:42;98727.82;;;25.25;36.96
34197;BME280;36594;45.192;5.722;2023-05-12T03:12:30;98731.14;;;25.25;36.97
34197;BME280;36594;45.192;5.722;2023-05-12T03:15:19;98723.16;;;25.26;37.00
34197;BME280;36594;45.192;5.722;2023-05-12T03:18:07;98721.23;;;25.26;36.97
34197;BME280;36594;45.192;5.722;2023-05-12T03:20:56;98715.20;;;25.27;36.88
34197;BME280;36594;45.192;5.722;2023-05-12T03:23:45;98719.32;;;25.27;36.90
34197;BME280;36594;45.192;5.722;2023-05-12T03:26:33;98717.66;;;25.26;36.91
34197;BME280;36594;45.192;5.722;2023-05-12T03:29:21;98707.77;;;25.25;36.96
34197;BME280;36594;45.192;5.722;2023-05-12T03:32:10;98712.44;;;25.24;36.99
34197;BME280;36594;45.192;5.722;2023-05-12T03:35:00;98710.23;;;25.24;37.00
34197;BME280;36594;45.192;5.722;2023-05-12T03:37:49;98709.94;;;25.23;36.98
34197;BME280;36594;45.192;5.722;2023-05-12T03:40:37;98708.56;;;25.23;37.02
34197;BME280;36594;45.192;5.722;2023-05-12T03:43:25;98709.94;;;25.23;37.07
34197;BME280;36594;45.192;5.722;2023-05-12T03:46:13;98708.56;;;25.23;36.99
34197;BME280;36594;45.192;5.722;2023-05-12T03:49:01;98706.39;;;25.22;36.96
34197;BME280;36594;45.192;5.722;2023-05-12T03:51:51;98705.56;;;25.22;37.03
34197;BME280;36594;45.192;5.722;2023-05-12T03:54:39;98700.89;;;25.20;36.97
34197;BME280;36594;45.192;5.722;2023-05-12T03:57:27;98702.26;;;25.20;36.98
34197;BME280;36594;45.192;5.722;2023-05-12T04:00:16;98696.77;;;25.20;37.03
34197;BME280;36594;45.192;5.722;2023-05-12T04:03:05;98698.68;;;25.19;36.98
34197;BME280;36594;45.192;5.722;2023-05-12T04:05:58;98700.34;;;25.20;36.95
34197;BME280;36594;45.192;5.722;2023-05-12T04:08:46;98691.81;;;25.22;36.96
34197;BME280;36594;45.192;5.722;2023-05-12T04:11:34;98690.72;;;25.18;37.02
34197;BME280;36594;45.192;5.722;2023-05-12T04:14:23;98689.05;;;25.19;37.00
34197;BME280;36594;45.192;5.722;2023-05-12T04:17:12;98694.02;;;25.20;37.14
34197;BME280;36594;45.192;5.722;2023-05-12T04:20:01;98691.52;;;25.18;37.21
34197;BME280;36594;45.192;5.722;2023-05-12T04:22:50;98698.14;;;25.20;37.23
34197;BME280;36594;45.192;5.722;2023-05-12T04:25:40;98697.84;;;25.19;37.24
34197;BME280;36594;45.192;5.722;2023-05-12T04:28:29;98703.08;;;25.18;37.26
34197;BME280;36594;45.192;5.722;2023-05-12T04:31:18;98706.92;;;25.19;37.27
34197;BME280;36594;45.192;5.722;2023-05-12T04:34:07;98715.71;;;25.19;37.30
34197;BME280;36594;45.192;5.722;2023-05-12T04:36:55;98718.20;;;25.18;37.27
34197;BME280;36594;45.192;5.722;2023-05-12T04:39:44;98721.20;;;25.16;37.27
34197;BME280;36594;45.192;5.722;2023-05-12T04:42:32;98720.11;;;25.15;37.36
34197;BME280;36594;45.192;5.722;2023-05-12T04:45:21;98720.37;;;25.16;37.39
34197;BME280;36594;45.192;5.722;2023-05-12T04:48:10;98711.88;;;25.17;37.32
34197;BME280;36594;45.192;5.722;2023-05-12T04:50:58;98719.28;;;25.17;37.30
34197;BME280;36594;45.192;5.722;2023-05-12T04:53:48;98731.13;;;25.20;37.28
34197;BME280;36594;45.192;5.722;2023-05-12T04:56:36;98729.20;;;25.18;37.25
34197;BME280;36594;45.192;5.722;2023-05-12T04:59:26;98726.16;;;25.17;37.23
34197;BME280;36594;45.192;5.722;2023-05-12T05:02:15;98730.27;;;25.17;37.24
34197;BME280;36594;45.192;5.722;2023-05-12T05:05:05;98740.73;;;25.17;37.27
34197;BME280;36594;45.192;5.722;2023-05-12T05:07:54;98739.61;;;25.16;37.31
34197;BME280;36594;45.192;5.722;2023-05-12T05:10:43;98743.48;;;25.17;37.27
34197;BME280;36594;45.192;5.722;2023-05-12T05:13:33;98746.23;;;25.17;37.26
34197;BME280;36594;45.192;5.722;2023-05-12T05:16:22;98752.56;;;25.18;37.25
34197;BME280;36594;45.192;5.722;2023-05-12T05:19:11;98751.19;;;25.18;37.25
34197;BME280;36594;45.192;5.722;2023-05-12T05:22:00;98753.09;;;25.15;37.32
34197;BME280;36594;45.192;5.722;2023-05-12T05:24:50;98753.93;;;25.18;37.31
34197;BME280;36594;45.192;5.722;2023-05-12T05:27:39;98748.96;;;25.15;37.29
34197;BME280;36594;45.192;5.722;2023-05-12T05:30:28;98755.02;;;25.17;37.30
34197;BME280;36594;45.192;5.722;2023-05-12T05:33:17;98759.41;;;25.15;37.31
34197;BME280;36594;45.192;5.722;2023-05-12T05:36:07;98756.91;;;25.11;37.33
34197;BME280;36594;45.192;5.722;2023-05-12T05:38:56;98759.95;;;25.15;37.32
34197;BME280;36594;45.192;5.722;2023-05-12T05:41:44;98758.28;;;25.11;37.32
34197;BME280;36594;45.192;5.722;2023-05-12T05:44:33;98760.21;;;25.08;37.40
34197;BME280;36594;45.192;5.722;2023-05-12T05:47:23;98761.03;;;25.14;37.38
34197;BME280;36594;45.192;5.722;2023-05-12T05:50:12;98766.00;;;25.14;37.37
34197;BME280;36594;45.192;5.722;2023-05-12T05:53:01;98761.88;;;25.14;37.39
34197;BME280;36594;45.192;5.722;2023-05-12T05:55:50;98762.97;;;25.16;37.33
34197;BME280;36594;45.192;5.722;2023-05-12T05:58:39;98754.73;;;25.13;37.33
34197;BME280;36594;45.192;5.722;2023-05-12T06:01:27;98756.92;;;25.14;37.33
34197;BME280;36594;45.192;5.722;2023-05-12T06:04:16;98760.79;;;25.15;37.32
34197;BME280;36594;45.192;5.722;2023-05-12T06:07:06;98758.05;;;25.18;37.24
34197;BME280;36594;45.192;5.722;2023-05-12T06:09:54;98762.72;;;25.17;37.25
34197;BME280;36594;45.192;5.722;2023-05-12T06:12:42;98766.31;;;25.20;37.17
34197;BME280;36594;45.192;5.722;2023-05-12T06:15:32;98766.02;;;25.19;37.17
34197;BME280;36594;45.192;5.722;2023-05-12T06:18:22;98759.98;;;25.20;37.18
34197;BME280;36594;45.192;5.722;2023-05-12T06:21:12;98761.36;;;25.20;37.16
34197;BME280;36594;45.192;5.722;2023-05-12T06:24:00;98761.06;;;25.19;37.15
34197;BME280;36594;45.192;5.722;2023-05-12T06:26:50;98761.36;;;25.20;37.12
34197;BME280;36594;45.192;5.722;2023-05-12T06:29:38;98760.23;;;25.18;37.14
34197;BME280;36594;45.192;5.722;2023-05-12T06:32:27;98765.17;;;25.16;37.19
34197;BME280;36594;45.192;5.722;2023-05-12T06:35:15;98766.01;;;25.17;37.23
34197;BME280;36594;45.192;5.722;2023-05-12T06:38:04;98763.55;;;25.18;37.21
34197;BME280;36594;45.192;5.722;2023-05-12T06:40:52;98761.05;;;25.16;37.21
34197;BME280;36594;45.192;5.722;2023-05-12T06:43:40;98762.70;;;25.15;37.27
34197;BME280;36594;45.192;5.722;2023-05-12T06:46:28;98764.34;;;25.16;37.26
34197;BME280;36594;45.192;5.722;2023-05-12T06:49:17;98769.30;;;25.16;37.26
34197;BME280;36594;45.192;5.722;2023-05-12T06:52:06;98764.09;;;25.17;37.26
34197;BME280;36594;45.192;5.722;2023-05-12T06:54:54;98770.42;;;25.18;37.27
34197;BME280;36594;45.192;5.722;2023-05-12T06:57:43;98766.01;;;25.17;37.31
34197;BME280;36594;45.192;5.722;2023-05-12T07:00:31;98771.80;;;25.18;37.29
34197;BME280;36594;45.192;5.722;2023-05-12T07:03:20;98769.05;;;25.18;37.27
34197;BME280;36594;45.192;5.722;2023-05-12T07:06:08;98770.42;;;25.18;37.30
34197;BME280;36594;45.192;5.722;2023-05-12T07:08:57;98767.67;;;25.18;37.30
34197;BME280;36594;45.192;5.722;2023-05-12T07:11:46;98766.01;;;25.17;37.32
34197;BME280;36594;45.192;5.722;2023-05-12T07:14:34;98767.67;;;25.18;37.25
34197;BME280;36594;45.192;5.722;2023-05-12T07:17:23;98767.94;;;25.19;37.30
34197;BME280;36594;45.192;5.722;2023-05-12T07:20:11;98772.34;;;25.20;37.27
34197;BME280;36594;45.192;5.722;2023-05-12T07:23:00;98768.23;;;25.20;37.29
34197;BME280;36594;45.192;5.722;2023-05-12T07:25:48;98764.92;;;25.18;37.30
34197;BME280;36594;45.192;5.722;2023-05-12T07:28:36;98762.17;;;25.18;37.32
34197;BME280;36594;45.192;5.722;2023-05-12T07:31:25;98759.44;;;25.20;37.31
34197;BME280;36594;45.192;5.722;2023-05-12T07:34:13;98760.24;;;25.21;37.27
34197;BME280;36594;45.192;5.722;2023-05-12T07:37:02;98759.16;;;25.22;37.29
34197;BME280;36594;45.192;5.722;2023-05-12T07:39:51;98755.04;;;25.22;37.28
34197;BME280;36594;45.192;5.722;2023-05-12T07:42:39;98760.80;;;25.23;37.29
34197;BME280;36594;45.192;5.722;2023-05-12T07:45:28;98758.87;;;25.21;37.30
34197;BME280;36594;45.192;5.722;2023-05-12T07:48:16;98756.97;;;25.24;37.31
34197;BME280;36594;45.192;5.722;2023-05-12T07:51:06;98755.30;;;25.23;37.25
34197;BME280;36594;45.192;5.722;2023-05-12T07:53:55;98756.09;;;25.16;37.41
34197;BME280;36594;45.192;5.722;2023-05-12T07:56:44;98752.83;;;25.21;37.31
34197;BME280;36594;45.192;5.722;2023-05-12T07:59:32;98752.83;;;25.21;37.31
34197;BME280;36594;45.192;5.722;2023-05-12T08:02:21;98750.91;;;25.19;37.38
34197;BME280;36594;45.192;5.722;2023-05-12T08:05:10;98745.14;;;25.23;37.39
34197;BME280;36594;45.192;5.722;2023-05-12T08:07:58;98746.80;;;25.24;37.38
34197;BME280;36594;45.192;5.722;2023-05-12T08:10:46;98746.52;;;25.26;37.28
34197;BME280;36594;45.192;5.722;2023-05-12T08:13:36;98744.59;;;25.24;37.41
34197;BME280;36594;45.192;5.722;2023-05-12T08:16:24;98740.45;;;25.19;37.66
34197;BME280;36594;45.192;5.722;2023-05-12T08:19:13;98739.37;;;25.20;37.82
34197;BME280;36594;45.192;5.722;2023-05-12T08:22:02;98744.89;;;25.25;37.73
34197;BME280;36594;45.192;5.722;2023-05-12T08:24:50;98749.02;;;25.25;37.82
34197;BME280;36594;45.192;5.722;2023-05-12T08:27:41;98749.57;;;25.29;37.76
34197;BME280;36594;45.192;5.722;2023-05-12T08:30:30;98744.06;;;25.27;37.72
34197;BME280;36594;45.192;5.722;2023-05-12T08:33:18;98741.33;;;25.29;37.73
34197;BME280;36594;45.192;5.722;2023-05-12T08:36:07;98739.12;;;25.29;37.76
34197;BME280;36594;45.192;5.722;2023-05-12T08:38:55;98743.50;;;25.30;37.80
34197;BME280;36594;45.192;5.722;2023-05-12T08:44:54;98735.55;;;25.31;37.81
34197;BME280;36594;45.192;5.722;2023-05-12T08:47:43;98733.90;;;25.27;37.85
34197;BME280;36594;45.192;5.722;2023-05-12T08:50:34;98731.95;;;25.28;37.83
34197;BME280;36594;45.192;5.722;2023-05-12T08:53:23;98728.95;;;25.29;37.86
34197;BME280;36594;45.192;5.722;2023-05-12T08:56:13;98732.50;;;25.30;37.81
34197;BME280;36594;45.192;5.722;2023-05-12T08:59:04;98731.13;;;25.30;37.83
34197;BME280;36594;45.192;5.722;2023-05-12T09:01:53;98727.00;;;25.30;37.82
34197;BME280;36594;45.192;5.722;2023-05-12T09:04:43;98727.00;;;25.30;37.85
34197;BME280;36594;45.192;5.722;2023-05-12T09:07:32;98725.09;;;25.30;37.74
34197;BME280;36594;45.192;5.722;2023-05-12T09:10:23;98726.75;;;25.29;37.80
34197;BME280;36594;45.192;5.722;2023-05-12T09:13:16;98725.66;;;25.27;37.76
34197;BME280;36594;45.192;5.722;2023-05-12T09:16:06;98727.31;;;25.33;37.70
34197;BME280;36594;45.192;5.722;2023-05-12T09:18:58;98722.63;;;25.31;37.71
34197;BME280;36594;45.192;5.722;2023-05-12T09:21:47;98717.38;;;25.30;37.70
34197;BME280;36594;45.192;5.722;2023-05-12T09:24:36;98716.01;;;25.30;37.76
34197;BME280;36594;45.192;5.722;2023-05-12T09:27:26;98715.75;;;25.29;37.75
34197;BME280;36594;45.192;5.722;2023-05-12T09:30:15;98715.76;;;25.31;37.71
34197;BME280;36594;45.192;5.722;2023-05-12T09:33:08;98718.77;;;25.32;37.71
34197;BME280;36594;45.192;5.722;2023-05-12T09:35:58;98721.81;;;25.33;37.70
34197;BME280;36594;45.192;5.722;2023-05-12T09:39:07;98714.92;;;25.31;37.66
34197;BME280;36594;45.192;5.722;2023-05-12T09:41:51;98718.51;;;25.31;37.67
34197;BME280;36594;45.192;5.722;2023-05-12T09:44:40;98718.76;;;25.30;37.69
34197;BME280;36594;45.192;5.722;2023-05-12T09:47:33;98722.63;;;25.29;37.74
34197;BME280;36594;45.192;5.722;2023-05-12T09:50:18;98719.59;;;25.30;37.73
34197;BME280;36594;45.192;5.722;2023-05-12T09:53:08;98722.07;;;25.27;37.73
34197;BME280;36594;45.192;5.722;2023-05-12T09:55:57;98714.64;;;25.30;37.73
34197;BME280;36594;45.192;5.722;2023-05-12T09:58:47;98717.12;;;25.29;37.68
34197;BME280;36594;45.192;5.722;2023-05-12T10:01:36;98712.72;;;25.30;37.69
34197;BME280;36594;45.192;5.722;2023-05-12T10:04:25;98711.63;;;25.29;37.63
34197;BME280;36594;45.192;5.722;2023-05-12T10:07:14;98716.59;;;25.32;37.63
34197;BME280;36594;45.192;5.722;2023-05-12T10:10:05;98713.27;;;25.30;37.60
34197;BME280;36594;45.192;5.722;2023-05-12T10:12:54;98723.45;;;25.29;37.63
34197;BME280;36594;45.192;5.722;2023-05-12T10:15:44;98717.95;;;25.27;37.61
34197;BME280;36594;45.192;5.722;2023-05-12T10:18:33;98715.46;;;25.28;37.61
34197;BME280;36594;45.192;5.722;2023-05-12T10:21:24;98712.17;;;25.28;37.59
34197;BME280;36594;45.192;5.722;2023-05-12T10:24:15;98710.25;;;25.29;37.59
34197;BME280;36594;45.192;5.722;2023-05-12T10:27:07;98710.25;;;25.29;37.56
34197;BME280;36594;45.192;5.722;2023-05-12T10:29:56;98702.00;;;25.29;37.49
34197;BME280;36594;45.192;5.722;2023-05-12T10:32:44;98706.13;;;25.29;37.50
34197;BME280;36594;45.192;5.722;2023-05-12T10:35:34;98703.38;;;25.29;37.45
34197;BME280;36594;45.192;5.722;2023-05-12T10:38:24;98703.09;;;25.28;37.47
34197;BME280;36594;45.192;5.722;2023-05-12T10:41:12;98697.34;;;25.29;37.44
34197;BME280;36594;45.192;5.722;2023-05-12T10:44:01;98700.34;;;25.28;37.40
34197;BME280;36594;45.192;5.722;2023-05-12T10:46:55;98694.30;;;25.28;37.42
34197;BME280;36594;45.192;5.722;2023-05-12T10:49:41;98691.55;;;25.28;37.36
34197;BME280;36594;45.192;5.722;2023-05-12T10:52:30;98696.51;;;25.29;37.35
34197;BME280;36594;45.192;5.722;2023-05-12T10:55:29;98694.58;;;25.27;37.37
34197;BME280;36594;45.192;5.722;2023-05-12T10:58:11;98692.66;;;25.27;37.37
34197;BME280;36594;45.192;5.722;2023-05-12T11:01:06;98690.45;;;25.24;37.36
34197;BME280;36594;45.192;5.722;2023-05-12T11:04:08;98690.17;;;25.26;37.35
34197;BME280;36594;45.192;5.722;2023-05-12T11:06:56;98689.34;;;25.28;37.30
34197;BME280;36594;45.192;5.722;2023-05-12T11:09:40;98683.03;;;25.25;37.23
34197;BME280;36594;45.192;5.722;2023-05-12T11:12:31;98684.41;;;25.25;37.21
34197;BME280;36594;45.192;5.722;2023-05-12T11:15:21;98683.03;;;25.25;37.20
34197;BME280;36594;45.192;5.722;2023-05-12T11:18:10;98689.34;;;25.25;37.23
34197;BME280;36594;45.192;5.722;2023-05-12T11:21:07;98684.67;;;25.26;37.17
34197;BME280;36594;45.192;5.722;2023-05-12T11:23:51;98686.05;;;25.26;37.12
34197;BME280;36594;45.192;5.722;2023-05-12T11:26:40;98680.29;;;25.25;37.16
34197;BME280;36594;45.192;5.722;2023-05-12T11:29:28;98682.75;;;25.24;37.10
34197;BME280;36594;45.192;5.722;2023-05-12T11:32:17;98685.21;;;25.25;37.15
34197;BME280;36594;45.192;5.722;2023-05-12T11:35:16;98680.00;;;25.26;37.14
34197;BME280;36594;45.192;5.722;2023-05-12T11:38:17;98675.05;;;25.26;37.11
34197;BME280;36594;45.192;5.722;2023-05-12T11:40:56;98671.75;;;25.24;37.13
34197;BME280;36594;45.192;5.722;2023-05-12T11:43:45;98672.30;;;25.23;37.09
34197;BME280;36594;45.192;5.722;2023-05-12T11:46:33;98673.67;;;25.23;37.09
34197;BME280;36594;45.192;5.722;2023-05-12T11:49:21;98664.88;;;25.24;37.07
34197;BME280;36594;45.192;5.722;2023-05-12T11:52:09;98671.75;;;25.24;37.05
34197;BME280;36594;45.192;5.722;2023-05-12T11:54:59;98669.30;;;25.25;37.07
34197;BME280;36594;45.192;5.722;2023-05-12T11:57:56;98668.45;;;25.24;37.08
34197;BME280;36594;45.192;5.722;2023-05-12T12:00:44;98657.72;;;25.25;37.08
34197;BME280;36594;45.192;5.722;2023-05-12T12:03:43;98657.47;;;25.24;37.08
34197;BME280;36594;45.192;5.722;2023-05-12T12:06:23;98654.17;;;25.25;37.09
34197;BME280;36594;45.192;5.722;2023-05-12T12:09:11;98651.42;;;25.25;37.06
34197;BME280;36594;45.192;5.722;2023-05-12T12:12:00;98653.05;;;25.23;37.11
34197;BME280;36594;45.192;5.722;2023-05-12T12:14:49;98643.98;;;25.25;37.05
34197;BME280;36594;45.192;5.722;2023-05-12T12:17:38;98645.09;;;25.24;37.04
34197;BME280;36594;45.192;5.722;2023-05-12T12:20:27;98640.14;;;25.24;37.06
34197;BME280;36594;45.192;5.722;2023-05-12T12:23:15;98650.59;;;25.27;37.01
34197;BME280;36594;45.192;5.722;2023-05-12T12:26:03;98641.81;;;25.27;37.04
34197;BME280;36594;45.192;5.722;2023-05-12T12:28:51;98639.86;;;25.28;37.00
34197;BME280;36594;45.192;5.722;2023-05-12T12:31:40;98640.41;;;25.30;36.98
34197;BME280;36594;45.192;5.722;2023-05-12T12:34:28;98637.69;;;25.27;36.97
34197;BME280;36594;45.192;5.722;2023-05-12T12:37:16;98640.44;;;25.27;36.95
34197;BME280;36594;45.192;5.722;2023-05-12T12:40:05;98645.11;;;25.29;36.97
34197;BME280;36594;45.192;5.722;2023-05-12T12:42:54;98639.03;;;25.30;36.99
34197;BME280;36594;45.192;5.722;2023-05-12T12:45:43;98640.70;;;25.31;36.97
34197;BME280;36594;45.192;5.722;2023-05-12T12:48:31;98643.73;;;25.29;36.98
34197;BME280;36594;45.192;5.722;2023-05-12T12:51:20;98639.61;;;25.29;36.99
34197;BME280;36594;45.192;5.722;2023-05-12T12:54:08;98644.28;;;25.29;36.99
34197;BME280;36594;45.192;5.722;2023-05-12T12:56:57;98632.73;;;25.29;36.96
34197;BME280;36594;45.192;5.722;2023-05-12T12:59:46;98634.94;;;25.27;36.97
34197;BME280;36594;45.192;5.722;2023-05-12T13:02:35;98638.48;;;25.28;37.00
34197;BME280;36594;45.192;5.722;2023-05-12T13:05:23;98639.87;;;25.30;36.96
34197;BME280;36594;45.192;5.722;2023-05-12T13:08:11;98635.20;;;25.31;36.91
34197;BME280;36594;45.192;5.722;2023-05-12T13:11:00;98637.13;;;25.30;36.97
34197;BME280;36594;45.192;5.722;2023-05-12T13:13:48;98633.28;;;25.29;36.95
34197;BME280;36594;45.192;5.722;2023-05-12T13:16:37;98632.98;;;25.28;36.97
34197;BME280;36594;45.192;5.722;2023-05-12T13:19:25;98629.44;;;25.27;37.07
34197;BME280;36594;45.192;5.722;2023-05-12T13:22:13;98633.28;;;25.29;37.01
34197;BME280;36594;45.192;5.722;2023-05-12T13:25:02;98630.25;;;25.30;37.02
34197;BME280;36594;45.192;5.722;2023-05-12T13:27:52;98631.63;;;25.30;37.08
34197;BME280;36594;45.192;5.722;2023-05-12T13:30:41;98622.00;;;25.30;37.05
34197;BME280;36594;45.192;5.722;2023-05-12T13:33:29;98624.50;;;25.32;37.01
34197;BME280;36594;45.192;5.722;2023-05-12T13:36:17;98618.70;;;25.28;37.04
34197;BME280;36594;45.192;5.722;2023-05-12T13:39:06;98617.88;;;25.30;37.02
34197;BME280;36594;45.192;5.722;2023-05-12T13:41:56;98610.75;;;25.32;37.06
34197;BME280;36594;45.192;5.722;2023-05-12T13:44:44;98614.87;;;25.32;37.03
34197;BME280;36594;45.192;5.722;2023-05-12T13:47:32;98606.34;;;25.31;37.01
34197;BME280;36594;45.192;5.722;2023-05-12T13:50:21;98608.55;;;25.31;37.02
34197;BME280;36594;45.192;5.722;2023-05-12T13:53:10;98611.00;;;25.30;37.01
34197;BME280;36594;45.192;5.722;2023-05-12T13:55:59;98616.79;;;25.31;37.02
34197;BME280;36594;45.192;5.722;2023-05-12T13:58:47;98607.42;;;25.30;37.01
34197;BME280;36594;45.192;5.722;2023-05-12T14:01:37;98611.84;;;25.31;36.98
34197;BME280;36594;45.192;5.722;2023-05-12T14:04:26;98601.13;;;25.29;36.98
34197;BME280;36594;45.192;5.722;2023-05-12T14:07:15;98602.50;;;25.32;36.96
34197;BME280;36594;45.192;5.722;2023-05-12T14:10:06;98609.92;;;25.34;36.95
34197;BME280;36594;45.192;5.722;2023-05-12T14:12:54;98600.30;;;25.34;36.95
34197;BME280;36594;45.192;5.722;2023-05-12T14:15:42;98599.75;;;25.32;36.89
34197;BME280;36594;45.192;5.722;2023-05-12T14:18:31;98599.75;;;25.32;36.93
34197;BME280;36594;45.192;5.722;2023-05-12T14:21:20;98599.75;;;25.32;36.93
34197;BME280;36594;45.192;5.722;2023-05-12T14:24:09;98595.62;;;25.29;36.93
34197;BME280;36594;45.192;5.722;2023-05-12T14:26:57;98589.84;;;25.31;36.96
34197;BME280;36594;45.192;5.722;2023-05-12T14:29:46;98590.67;;;25.29;36.90
34197;BME280;36594;45.192;5.722;2023-05-12T14:32:34;98587.38;;;25.32;36.92
34197;BME280;36594;45.192;5.722;2023-05-12T14:35:22;98586.81;;;25.32;36.92
34197;BME280;36594;45.192;5.722;2023-05-12T14:38:12;98574.44;;;25.32;36.93
34197;BME280;36594;45.192;5.722;2023-05-12T14:41:01;98575.27;;;25.33;36.94
34197;BME280;36594;45.192;5.722;2023-05-12T14:43:50;98576.10;;;25.36;36.90
34197;BME280;36594;45.192;5.722;2023-05-12T14:46:38;98573.07;;;25.37;36.91
34197;BME280;36594;45.192;5.722;2023-05-12T14:49:26;98573.61;;;25.37;36.89
34197;BME280;36594;45.192;5.722;2023-05-12T14:52:15;98577.19;;;25.37;36.88
34197;BME280;36594;45.192;5.722;2023-05-12T14:55:08;98580.23;;;25.38;36.92
34197;BME280;36594;45.192;5.722;2023-05-12T14:58:01;98585.98;;;25.39;36.89